createdAt,value
2022-11-29T00:00:50.704Z,95270
2022-11-29T00:02:00.527Z,95265
2022-11-29T00:03:10.208Z,95271
2022-11-29T00:04:19.952Z,95269
2022-11-29T00:05:29.650Z,95272
2022-11-29T00:06:38.324Z,95267
2022-11-29T00:07:48.084Z,95264
2022-11-29T00:08:55.701Z,95266
2022-11-29T00:10:04.458Z,95261
2022-11-29T00:11:14.122Z,95260
2022-11-29T00:12:22.801Z,95265
2022-11-29T00:13:32.472Z,95262
2022-11-29T00:14:41.250Z,95265
2022-11-29T00:15:49.851Z,95260
2022-11-29T00:17:00.613Z,95260
2022-11-29T00:18:08.331Z,95264
2022-11-29T00:19:18.112Z,95265
2022-11-29T00:20:27.773Z,95265
2022-11-29T00:21:36.554Z,95259
2022-11-29T00:22:45.260Z,95259
2022-11-29T00:23:54.937Z,95265
2022-11-29T00:25:04.601Z,95260
2022-11-29T00:26:14.291Z,95259
2022-11-29T00:27:21.979Z,95259
2022-11-29T00:28:31.648Z,95257
2022-11-29T00:29:41.334Z,95257
2022-11-29T00:30:49.044Z,95264
2022-11-29T00:31:58.710Z,95259
2022-11-29T00:33:07.436Z,95257
2022-11-29T00:34:17.165Z,95259
2022-11-29T00:35:25.859Z,95257
2022-11-29T00:36:34.533Z,95257
2022-11-29T00:37:43.190Z,95256
2022-11-29T00:38:52.943Z,95259
2022-11-29T00:40:01.643Z,95258
2022-11-29T00:41:10.359Z,95257
2022-11-29T00:42:20.035Z,95255
2022-11-29T00:43:29.804Z,95258
2022-11-29T00:44:39.527Z,95254
2022-11-29T00:45:48.256Z,95258
2022-11-29T00:46:56.904Z,95256
2022-11-29T00:48:06.579Z,95255
2022-11-29T00:49:15.277Z,95251
2022-11-29T00:50:26.086Z,95252
2022-11-29T00:51:34.785Z,95250
2022-11-29T00:52:43.459Z,95254
2022-11-29T00:53:53.148Z,95253
2022-11-29T00:55:00.805Z,95251
2022-11-29T00:56:09.503Z,95255
2022-11-29T00:57:19.191Z,95251
2022-11-29T00:58:28.875Z,95254
2022-11-29T00:59:38.564Z,95255
2022-11-29T01:00:47.247Z,95255
2022-11-29T01:01:55.959Z,95256
2022-11-29T01:03:05.661Z,95256
2022-11-29T01:04:15.332Z,95259
2022-11-29T01:05:25.024Z,95258
2022-11-29T01:06:34.697Z,95260
2022-11-29T01:07:44.637Z,95257
2022-11-29T01:08:54.233Z,95255
2022-11-29T01:10:01.919Z,95258
2022-11-29T01:11:10.631Z,95255
2022-11-29T01:12:19.298Z,95254
2022-11-29T01:13:28.098Z,95254
2022-11-29T01:14:37.811Z,95256
2022-11-29T01:15:45.503Z,95255
2022-11-29T01:16:54.265Z,95253
2022-11-29T01:18:03.983Z,95254
2022-11-29T01:19:11.690Z,95251
2022-11-29T01:20:21.395Z,95257
2022-11-29T01:21:29.069Z,95255
2022-11-29T01:22:37.748Z,95260
2022-11-29T01:23:47.440Z,95257
2022-11-29T01:24:57.147Z,95256
2022-11-29T01:26:05.816Z,95256
2022-11-29T01:27:15.562Z,95259
2022-11-29T01:28:23.247Z,95255
2022-11-29T01:29:32.970Z,95259
2022-11-29T01:30:41.740Z,95259
2022-11-29T01:31:51.379Z,95260
2022-11-29T01:33:01.087Z,95259
2022-11-29T01:34:08.758Z,95256
2022-11-29T01:35:18.460Z,95258
2022-11-29T01:36:28.187Z,95261
2022-11-29T01:37:37.876Z,95256
2022-11-29T01:38:46.562Z,95259
2022-11-29T01:39:55.265Z,95256
2022-11-29T01:41:03.917Z,95260
2022-11-29T01:42:13.621Z,95259
2022-11-29T01:43:22.292Z,95255
2022-11-29T01:44:30.951Z,95260
2022-11-29T01:45:40.717Z,95254
2022-11-29T01:46:50.366Z,95260
2022-11-29T01:47:59.109Z,95258
2022-11-29T01:49:07.784Z,95259
2022-11-29T01:50:16.467Z,95258
2022-11-29T01:51:26.145Z,95251
2022-11-29T01:52:35.797Z,95252
2022-11-29T01:53:44.473Z,95255
2022-11-29T01:54:54.166Z,95252
2022-11-29T01:56:01.921Z,95253
2022-11-29T01:57:10.481Z,95253
2022-11-29T01:58:19.163Z,95254
2022-11-29T01:59:28.832Z,95251
2022-11-29T02:00:38.517Z,95252
2022-11-29T02:01:47.240Z,95252
2022-11-29T02:02:56.991Z,95254
2022-11-29T02:04:06.628Z,95250
2022-11-29T02:05:15.333Z,95252
2022-11-29T02:06:24.002Z,95251
2022-11-29T02:07:33.743Z,95254
2022-11-29T02:08:42.348Z,95250
2022-11-29T02:09:52.036Z,95255
2022-11-29T02:11:00.717Z,95250
2022-11-29T02:12:09.399Z,95251
2022-11-29T02:13:19.056Z,95251
2022-11-29T02:14:27.725Z,95254
2022-11-29T02:15:37.440Z,95254
2022-11-29T02:16:46.271Z,95249
2022-11-29T02:17:55.922Z,95248
2022-11-29T02:19:05.619Z,95250
2022-11-29T02:20:13.336Z,95251
2022-11-29T02:21:22.013Z,95249
2022-11-29T02:22:31.709Z,95248
2022-11-29T02:23:40.378Z,95249
2022-11-29T02:24:49.078Z,95248
2022-11-29T02:25:57.784Z,95247
2022-11-29T02:27:06.452Z,95250
2022-11-29T02:28:16.169Z,95249
2022-11-29T02:29:24.845Z,95247
2022-11-29T02:30:33.571Z,95247
2022-11-29T02:31:43.282Z,95249
2022-11-29T02:32:49.954Z,95246
2022-11-29T02:33:58.672Z,95245
2022-11-29T02:35:07.393Z,95246
2022-11-29T02:36:16.081Z,95246
2022-11-29T02:37:25.828Z,95246
2022-11-29T02:38:33.494Z,95244
2022-11-29T02:39:42.235Z,95247
2022-11-29T02:40:51.917Z,95246
2022-11-29T02:42:00.631Z,95248
2022-11-29T02:43:10.324Z,95244
2022-11-29T02:44:19.062Z,95246
2022-11-29T02:45:27.784Z,95246
2022-11-29T02:46:37.488Z,95248
2022-11-29T02:47:47.194Z,95248
2022-11-29T02:48:55.858Z,95248
2022-11-29T02:50:05.545Z,95247
2022-11-29T02:51:15.349Z,95246
2022-11-29T02:52:25.096Z,95248
2022-11-29T02:53:33.818Z,95247
2022-11-29T02:54:41.531Z,95247
2022-11-29T02:55:50.221Z,95245
2022-11-29T02:56:59.011Z,95247
2022-11-29T02:58:08.787Z,95245
2022-11-29T02:59:17.488Z,95247
2022-11-29T03:00:27.228Z,95250
2022-11-29T03:01:37.012Z,95248
2022-11-29T03:02:44.631Z,95252
2022-11-29T03:03:54.286Z,95254
2022-11-29T03:05:02.987Z,95251
2022-11-29T03:06:12.703Z,95253
2022-11-29T03:07:22.585Z,95253
2022-11-29T03:08:31.225Z,95257
2022-11-29T03:09:39.884Z,95254
2022-11-29T03:10:48.596Z,95257
2022-11-29T03:11:56.281Z,95255
2022-11-29T03:13:04.950Z,95252
2022-11-29T03:14:13.724Z,95255
2022-11-29T03:15:22.448Z,95256
2022-11-29T03:16:32.212Z,95257
2022-11-29T03:17:42.868Z,95258
2022-11-29T03:18:52.552Z,95262
2022-11-29T03:20:02.342Z,95267
2022-11-29T03:21:10.039Z,95266
2022-11-29T03:22:18.735Z,95268
2022-11-29T03:23:27.505Z,95270
2022-11-29T03:24:36.212Z,95268
2022-11-29T03:25:45.904Z,95271
2022-11-29T03:26:53.612Z,95266
2022-11-29T03:28:02.333Z,95269
2022-11-29T03:29:12.033Z,95273
2022-11-29T03:30:20.737Z,95274
2022-11-29T03:31:29.477Z,95271
2022-11-29T03:32:38.132Z,95273
2022-11-29T03:33:46.789Z,95271
2022-11-29T03:34:57.476Z,95272
2022-11-29T03:36:06.173Z,95273
2022-11-29T03:37:14.898Z,95274
2022-11-29T03:38:24.625Z,95276
2022-11-29T03:39:34.323Z,95274
2022-11-29T03:40:43.024Z,95272
2022-11-29T03:41:52.701Z,95277
2022-11-29T03:43:02.427Z,95275
2022-11-29T03:44:12.102Z,95279
2022-11-29T03:45:19.775Z,95276
2022-11-29T03:46:29.490Z,95280
2022-11-29T03:47:39.185Z,95283
2022-11-29T03:48:47.894Z,95279
2022-11-29T03:49:57.610Z,95278
2022-11-29T03:51:06.310Z,95277
2022-11-29T03:52:15.996Z,95276
2022-11-29T03:53:25.761Z,95284
2022-11-29T03:54:33.620Z,95275
2022-11-29T03:55:42.332Z,95284
2022-11-29T03:56:52.112Z,95284
2022-11-29T03:58:00.791Z,95284
2022-11-29T03:59:10.490Z,95280
2022-11-29T04:00:19.203Z,95285
2022-11-29T04:01:27.891Z,95285
2022-11-29T04:02:37.636Z,95285
2022-11-29T04:03:46.324Z,95282
2022-11-29T04:04:56.058Z,95281
2022-11-29T04:06:05.779Z,95282
2022-11-29T04:07:13.459Z,95280
2022-11-29T04:08:23.196Z,95282
2022-11-29T04:09:32.895Z,95280
2022-11-29T04:10:41.600Z,95279
2022-11-29T04:11:51.333Z,95277
2022-11-29T04:13:00.045Z,95283
2022-11-29T04:14:08.766Z,95279
2022-11-29T04:15:18.453Z,95276
2022-11-29T04:16:26.100Z,95274
2022-11-29T04:17:35.827Z,95273
2022-11-29T04:18:44.520Z,95270
2022-11-29T04:19:54.205Z,95271
2022-11-29T04:21:03.921Z,95276
2022-11-29T04:22:12.601Z,95271
2022-11-29T04:23:22.438Z,95270
2022-11-29T04:24:32.195Z,95272
2022-11-29T04:25:41.976Z,95273
2022-11-29T04:26:51.653Z,95270
2022-11-29T04:28:01.328Z,95272
2022-11-29T04:29:12.088Z,95271
2022-11-29T04:30:21.956Z,95272
2022-11-29T04:31:29.663Z,95272
2022-11-29T04:32:39.327Z,95273
2022-11-29T04:33:49.051Z,95273
2022-11-29T04:34:56.773Z,95279
2022-11-29T04:36:06.489Z,95277
2022-11-29T04:37:16.177Z,95273
2022-11-29T04:38:24.843Z,95277
2022-11-29T04:39:34.540Z,95279
2022-11-29T04:40:43.268Z,95277
2022-11-29T04:41:52.927Z,95275
2022-11-29T04:43:02.622Z,95278
2022-11-29T04:44:12.298Z,95274
2022-11-29T04:45:20.972Z,95284
2022-11-29T04:46:29.728Z,95279
2022-11-29T04:47:38.453Z,95278
2022-11-29T04:48:48.179Z,95275
2022-11-29T04:49:56.857Z,95275
2022-11-29T04:51:05.584Z,95282
2022-11-29T04:52:15.563Z,95282
2022-11-29T04:53:24.203Z,95279
2022-11-29T04:54:33.930Z,95277
2022-11-29T04:55:42.598Z,95278
2022-11-29T04:56:50.307Z,95276
2022-11-29T04:57:59.004Z,95276
2022-11-29T04:59:07.765Z,95273
2022-11-29T05:00:17.456Z,95280
2022-11-29T05:01:25.230Z,95283
2022-11-29T05:02:33.988Z,95281
2022-11-29T05:03:46.646Z,95282
2022-11-29T05:04:54.336Z,95282
2022-11-29T05:06:04.053Z,95283
2022-11-29T05:07:12.764Z,95283
2022-11-29T05:08:21.470Z,95279
2022-11-29T05:09:31.220Z,95284
2022-11-29T05:10:38.952Z,95286
2022-11-29T05:11:47.635Z,95281
2022-11-29T05:12:56.349Z,95284
2022-11-29T05:14:05.033Z,95282
2022-11-29T05:15:15.010Z,95278
2022-11-29T05:16:23.765Z,95279
2022-11-29T05:17:32.383Z,95287
2022-11-29T05:18:42.059Z,95284
2022-11-29T05:19:50.775Z,95288
2022-11-29T05:21:00.467Z,95288
2022-11-29T05:22:10.372Z,95290
2022-11-29T05:23:18.080Z,95287
2022-11-29T05:24:27.847Z,95289
2022-11-29T05:25:37.509Z,95290
2022-11-29T05:26:47.354Z,95294
2022-11-29T05:27:57.014Z,95290
2022-11-29T05:29:06.736Z,95298
2022-11-29T05:30:15.399Z,95295
2022-11-29T05:31:25.263Z,95296
2022-11-29T05:32:34.890Z,95295
2022-11-29T05:33:43.581Z,95295
2022-11-29T05:34:52.290Z,95297
2022-11-29T05:36:01.009Z,95296
2022-11-29T05:37:10.730Z,95297
2022-11-29T05:38:18.487Z,95300
2022-11-29T05:39:27.193Z,95298
2022-11-29T05:40:36.894Z,95297
2022-11-29T05:41:45.527Z,95304
2022-11-29T05:42:54.191Z,95302
2022-11-29T05:44:02.895Z,95303
2022-11-29T05:45:12.636Z,95304
2022-11-29T05:46:21.339Z,95306
2022-11-29T05:47:31.509Z,95306
2022-11-29T05:48:37.715Z,95302
2022-11-29T05:49:47.483Z,95308
2022-11-29T05:50:56.189Z,95305
2022-11-29T05:52:05.872Z,95305
2022-11-29T05:53:15.553Z,95305
2022-11-29T05:54:24.235Z,95310
2022-11-29T05:55:33.912Z,95302
2022-11-29T05:56:42.712Z,95306
2022-11-29T05:57:51.379Z,95308
2022-11-29T05:59:01.251Z,95307
2022-11-29T06:00:08.917Z,95308
2022-11-29T06:01:17.627Z,95310
2022-11-29T06:02:27.501Z,95308
2022-11-29T06:03:35.946Z,95307
2022-11-29T06:04:45.873Z,95313
2022-11-29T06:05:54.348Z,95310
2022-11-29T06:07:03.064Z,95310
2022-11-29T06:08:12.808Z,95309
2022-11-29T06:09:20.463Z,95308
2022-11-29T06:10:30.148Z,95309
2022-11-29T06:11:39.855Z,95308
2022-11-29T06:12:48.660Z,95312
2022-11-29T06:13:58.324Z,95309
2022-11-29T06:15:06.985Z,95312
2022-11-29T06:16:15.744Z,95308
2022-11-29T06:17:24.402Z,95310
2022-11-29T06:18:32.162Z,95313
2022-11-29T06:19:40.870Z,95309
2022-11-29T06:20:50.566Z,95310
2022-11-29T06:21:59.287Z,95311
2022-11-29T06:23:08.968Z,95313
2022-11-29T06:24:20.524Z,95315
2022-11-29T06:25:26.316Z,95315
2022-11-29T06:26:35.969Z,95315
2022-11-29T06:27:45.654Z,95312
2022-11-29T06:28:55.355Z,95316
2022-11-29T06:30:05.145Z,95314
2022-11-29T06:31:13.884Z,95317
2022-11-29T06:32:23.567Z,95318
2022-11-29T06:33:31.305Z,95317
2022-11-29T06:34:38.995Z,95320
2022-11-29T06:35:48.736Z,95320
2022-11-29T06:36:58.424Z,95320
2022-11-29T06:38:07.087Z,95324
2022-11-29T06:39:15.759Z,95321
2022-11-29T06:40:24.446Z,95325
2022-11-29T06:41:35.128Z,95322
2022-11-29T06:42:42.809Z,95326
2022-11-29T06:43:51.520Z,95325
2022-11-29T06:45:01.247Z,95325
2022-11-29T06:46:09.968Z,95324
2022-11-29T06:47:19.615Z,95328
2022-11-29T06:48:28.320Z,95329
2022-11-29T06:49:37.999Z,95328
2022-11-29T06:50:47.708Z,95327
2022-11-29T06:51:57.375Z,95332
2022-11-29T06:53:07.127Z,95330
2022-11-29T06:54:15.827Z,95325
2022-11-29T06:55:24.513Z,95328
2022-11-29T06:56:34.196Z,95328
2022-11-29T06:57:43.830Z,95331
2022-11-29T06:58:52.544Z,95332
2022-11-29T07:00:01.302Z,95334
2022-11-29T07:01:10.119Z,95333
2022-11-29T07:02:19.730Z,95335
2022-11-29T07:03:28.425Z,95337
2022-11-29T07:04:42.700Z,95336
2022-11-29T07:05:48.898Z,95338
2022-11-29T07:06:56.577Z,95339
2022-11-29T07:08:05.299Z,95342
2022-11-29T07:09:14.959Z,95340
2022-11-29T07:10:23.654Z,95339
2022-11-29T07:11:33.327Z,95345
2022-11-29T07:12:43.007Z,95347
2022-11-29T07:13:52.703Z,95341
2022-11-29T07:15:02.426Z,95347
2022-11-29T07:16:12.333Z,95343
2022-11-29T07:17:21.944Z,95347
2022-11-29T07:18:30.621Z,95342
2022-11-29T07:19:39.315Z,95345
2022-11-29T07:20:49.055Z,95344
2022-11-29T07:21:56.736Z,95346
2022-11-29T07:23:05.386Z,95349
2022-11-29T07:24:15.070Z,95350
2022-11-29T07:25:24.826Z,95347
2022-11-29T07:26:33.518Z,95347
2022-11-29T07:27:42.260Z,95352
2022-11-29T07:28:51.968Z,95351
2022-11-29T07:30:01.720Z,95358
2022-11-29T07:31:11.441Z,95353
2022-11-29T07:32:21.102Z,95352
2022-11-29T07:33:30.920Z,95352
2022-11-29T07:34:40.621Z,95357
2022-11-29T07:35:49.289Z,95353
2022-11-29T07:36:57.985Z,95355
2022-11-29T07:38:07.720Z,95354
2022-11-29T07:39:17.392Z,95354
2022-11-29T07:40:25.084Z,95354
2022-11-29T07:41:35.740Z,95350
2022-11-29T07:42:45.520Z,95351
2022-11-29T07:43:55.180Z,95353
2022-11-29T07:45:03.871Z,95350
2022-11-29T07:46:13.585Z,95353
2022-11-29T07:47:22.355Z,95350
2022-11-29T07:48:33.072Z,95354
2022-11-29T07:49:41.782Z,95353
2022-11-29T07:50:50.528Z,95349
2022-11-29T07:52:00.287Z,95351
2022-11-29T07:53:07.945Z,95354
2022-11-29T07:54:16.670Z,95353
2022-11-29T07:55:25.398Z,95355
2022-11-29T07:56:35.186Z,95358
2022-11-29T07:57:44.876Z,95355
2022-11-29T07:58:52.588Z,95359
2022-11-29T08:00:01.219Z,95358
2022-11-29T08:01:11.018Z,95361
2022-11-29T08:02:18.678Z,95362
2022-11-29T08:03:27.485Z,95360
2022-11-29T08:04:37.185Z,95361
2022-11-29T08:05:46.840Z,95358
2022-11-29T08:06:56.579Z,95355
2022-11-29T08:08:04.264Z,95360
2022-11-29T08:09:12.925Z,95357
2022-11-29T08:10:22.789Z,95357
2022-11-29T08:11:31.456Z,95356
2022-11-29T08:12:40.101Z,95362
2022-11-29T08:13:48.841Z,95363
2022-11-29T08:14:57.507Z,95367
2022-11-29T08:16:07.206Z,95367
2022-11-29T08:17:15.847Z,95370
2022-11-29T08:18:24.542Z,95370
2022-11-29T08:19:34.249Z,95373
2022-11-29T08:20:42.899Z,95376
2022-11-29T08:21:50.585Z,95374
2022-11-29T08:22:59.321Z,95376
2022-11-29T08:24:08.984Z,95373
2022-11-29T08:25:18.716Z,95377
2022-11-29T08:26:31.151Z,95377
2022-11-29T08:27:36.055Z,95380
2022-11-29T08:28:45.759Z,95378
2022-11-29T08:29:55.439Z,95375
2022-11-29T08:31:05.158Z,95377
2022-11-29T08:32:13.826Z,95377
2022-11-29T08:33:22.490Z,95379
2022-11-29T08:34:32.180Z,95378
2022-11-29T08:35:39.853Z,95374
2022-11-29T08:36:49.523Z,95379
2022-11-29T08:37:59.222Z,95375
2022-11-29T08:39:09.644Z,95374
2022-11-29T08:40:16.583Z,95376
2022-11-29T08:41:25.372Z,95382
2022-11-29T08:42:34.071Z,95379
2022-11-29T08:43:43.815Z,95376
2022-11-29T08:44:52.475Z,95383
2022-11-29T08:46:01.178Z,95379
2022-11-29T08:47:10.786Z,95381
2022-11-29T08:48:18.476Z,95378
2022-11-29T08:49:28.135Z,95377
2022-11-29T08:50:37.796Z,95375
2022-11-29T08:51:47.499Z,95374
2022-11-29T08:52:57.154Z,95378
2022-11-29T08:54:05.837Z,95372
2022-11-29T08:55:15.556Z,95376
2022-11-29T08:57:04.829Z,95379
2022-11-29T08:57:41.425Z,95386
2022-11-29T08:58:44.487Z,95384
2022-11-29T08:59:52.186Z,95383
2022-11-29T09:01:01.915Z,95385
2022-11-29T09:02:11.643Z,95377
2022-11-29T09:03:20.266Z,95380
2022-11-29T09:04:29.933Z,95386
2022-11-29T09:05:38.615Z,95386
2022-11-29T09:06:48.297Z,95389
2022-11-29T09:07:56.020Z,95385
2022-11-29T09:09:03.705Z,95386
2022-11-29T09:10:13.400Z,95387
2022-11-29T09:11:22.167Z,95392
2022-11-29T09:12:30.847Z,95389
2022-11-29T09:13:40.552Z,95392
2022-11-29T09:14:49.223Z,95393
2022-11-29T09:15:58.921Z,95397
2022-11-29T09:17:08.638Z,95389
2022-11-29T09:18:18.554Z,95395
2022-11-29T09:19:27.498Z,95393
2022-11-29T09:20:37.187Z,95392
2022-11-29T09:21:45.885Z,95392
2022-11-29T09:22:55.583Z,95395
2022-11-29T09:24:04.372Z,95397
2022-11-29T09:25:14.001Z,95394
2022-11-29T09:26:23.715Z,95400
2022-11-29T09:27:31.377Z,95399
2022-11-29T09:28:41.062Z,95400
2022-11-29T09:29:49.743Z,95397
2022-11-29T09:30:59.461Z,95402
2022-11-29T09:32:09.177Z,95401
2022-11-29T09:33:18.871Z,95401
2022-11-29T09:34:27.581Z,95404
2022-11-29T09:35:37.280Z,95404
2022-11-29T09:36:46.006Z,95404
2022-11-29T09:37:54.685Z,95402
2022-11-29T09:39:03.383Z,95408
2022-11-29T09:40:12.118Z,95407
2022-11-29T09:41:21.796Z,95402
2022-11-29T09:42:29.490Z,95404
2022-11-29T09:43:39.203Z,95402
2022-11-29T09:44:48.994Z,95405
2022-11-29T09:45:57.653Z,95403
2022-11-29T09:47:07.297Z,95400
2022-11-29T09:48:16.018Z,95404
2022-11-29T09:49:25.698Z,95404
2022-11-29T09:50:35.372Z,95403
2022-11-29T09:51:44.602Z,95408
2022-11-29T09:52:52.716Z,95405
2022-11-29T09:54:02.405Z,95404
2022-11-29T09:55:10.081Z,95407
2022-11-29T09:56:19.815Z,95406
2022-11-29T09:57:29.500Z,95408
2022-11-29T09:58:38.237Z,95412
2022-11-29T09:59:48.049Z,95408
2022-11-29T10:00:56.768Z,95407
2022-11-29T10:02:05.442Z,95407
2022-11-29T10:03:16.099Z,95407
2022-11-29T10:04:23.792Z,95411
2022-11-29T10:05:32.507Z,95412
2022-11-29T10:06:41.246Z,95408
2022-11-29T10:07:50.003Z,95413
2022-11-29T10:08:59.676Z,95407
2022-11-29T10:10:09.365Z,95414
2022-11-29T10:11:19.041Z,95409
2022-11-29T10:12:28.771Z,95407
2022-11-29T10:13:37.526Z,95408
2022-11-29T10:14:47.497Z,95411
2022-11-29T10:15:55.963Z,95408
2022-11-29T10:17:05.673Z,95404
2022-11-29T10:18:15.360Z,95403
2022-11-29T10:19:24.100Z,95406
2022-11-29T10:20:37.933Z,95409
2022-11-29T10:21:44.480Z,95408
2022-11-29T10:22:52.214Z,95404
2022-11-29T10:24:00.877Z,95404
2022-11-29T10:25:09.573Z,95406
2022-11-29T10:26:19.279Z,95408
2022-11-29T10:27:30.010Z,95405
2022-11-29T10:28:38.718Z,95399
2022-11-29T10:29:48.426Z,95405
2022-11-29T10:30:58.274Z,95403
2022-11-29T10:32:10.157Z,95406
2022-11-29T10:33:16.612Z,95405
2022-11-29T10:34:26.305Z,95406
2022-11-29T10:35:34.963Z,95405
2022-11-29T10:36:44.634Z,95403
2022-11-29T10:38:22.508Z,95400
2022-11-29T10:39:02.969Z,95401
2022-11-29T10:40:13.626Z,95401
2022-11-29T10:41:22.388Z,95398
2022-11-29T10:42:31.099Z,95401
2022-11-29T10:43:39.821Z,95402
2022-11-29T10:44:48.524Z,95396
2022-11-29T10:45:59.242Z,95399
2022-11-29T10:47:10.869Z,95399
2022-11-29T10:48:16.500Z,95394
2022-11-29T10:49:24.199Z,95396
2022-11-29T10:50:32.914Z,95393
2022-11-29T10:51:42.582Z,95398
2022-11-29T10:52:50.258Z,95396
2022-11-29T10:53:59.897Z,95399
2022-11-29T10:55:09.697Z,95390
2022-11-29T10:56:19.365Z,95394
2022-11-29T10:57:29.029Z,95394
2022-11-29T10:58:38.731Z,95393
2022-11-29T10:59:48.396Z,95397
2022-11-29T11:00:58.301Z,95395
2022-11-29T11:02:06.825Z,95396
2022-11-29T11:03:16.618Z,95397
2022-11-29T11:04:25.288Z,95399
2022-11-29T11:05:33.999Z,95396
2022-11-29T11:06:43.681Z,95394
2022-11-29T11:07:51.489Z,95394
2022-11-29T11:09:01.148Z,95394
2022-11-29T11:10:10.819Z,95398
2022-11-29T11:11:19.530Z,95388
2022-11-29T11:12:29.331Z,95392
2022-11-29T11:13:39.045Z,95388
2022-11-29T11:14:48.855Z,95394
2022-11-29T11:15:58.419Z,95396
2022-11-29T11:17:06.154Z,95398
2022-11-29T11:18:15.808Z,95396
2022-11-29T11:19:25.467Z,95391
2022-11-29T11:20:34.157Z,95398
2022-11-29T11:21:42.791Z,95394
2022-11-29T11:22:52.520Z,95395
2022-11-29T11:24:01.231Z,95394
2022-11-29T11:25:10.948Z,95395
2022-11-29T11:26:20.722Z,95396
2022-11-29T11:27:29.416Z,95394
2022-11-29T11:28:39.243Z,95394
2022-11-29T11:29:46.987Z,95396
2022-11-29T11:30:56.729Z,95398
2022-11-29T11:32:06.318Z,95397
2022-11-29T11:33:15.054Z,95394
2022-11-29T11:34:23.738Z,95396
2022-11-29T11:35:31.419Z,95394
2022-11-29T11:36:41.071Z,95396
2022-11-29T11:37:50.899Z,95396
2022-11-29T11:38:59.576Z,95399
2022-11-29T11:40:08.290Z,95399
2022-11-29T11:41:16.938Z,95405
2022-11-29T11:42:26.714Z,95402
2022-11-29T11:43:36.376Z,95403
2022-11-29T11:44:47.149Z,95404
2022-11-29T11:45:53.832Z,95403
2022-11-29T11:47:03.558Z,95400
2022-11-29T11:48:12.241Z,95403
2022-11-29T11:49:20.958Z,95406
2022-11-29T11:50:30.676Z,95402
2022-11-29T11:51:40.416Z,95406
2022-11-29T11:52:50.919Z,95405
2022-11-29T11:53:57.761Z,95405
2022-11-29T11:55:06.453Z,95403
2022-11-29T11:56:16.112Z,95405
2022-11-29T11:57:24.801Z,95400
2022-11-29T11:58:34.519Z,95404
2022-11-29T11:59:44.190Z,95403
2022-11-29T12:01:09.381Z,95404
2022-11-29T12:02:04.700Z,95405
2022-11-29T12:03:14.430Z,95404
2022-11-29T12:04:23.233Z,95407
2022-11-29T12:05:32.868Z,95402
2022-11-29T12:06:40.545Z,95407
2022-11-29T12:09:00.872Z,95405
2022-11-29T12:10:09.588Z,95407
2022-11-29T12:11:19.255Z,95406
2022-11-29T12:12:26.977Z,95401
2022-11-29T12:13:35.681Z,95406
2022-11-29T12:14:45.550Z,95404
2022-11-29T12:15:53.097Z,95409
2022-11-29T12:17:01.751Z,95409
2022-11-29T12:18:10.445Z,95408
2022-11-29T12:19:19.112Z,95409
2022-11-29T12:20:28.879Z,95413
2022-11-29T12:21:38.581Z,95407
2022-11-29T12:22:48.703Z,95410
2022-11-29T12:23:57.919Z,95411
2022-11-29T12:25:05.573Z,95416
2022-11-29T12:26:23.893Z,95408
2022-11-29T12:27:25.997Z,95418
2022-11-29T12:28:35.661Z,95413
2022-11-29T12:29:45.332Z,95411
2022-11-29T12:30:55.063Z,95410
2022-11-29T12:32:05.698Z,95412
2022-11-29T12:33:15.421Z,95410
2022-11-29T12:34:22.693Z,95414
2022-11-29T12:35:30.846Z,95415
2022-11-29T12:36:39.523Z,95415
2022-11-29T12:37:48.141Z,95413
2022-11-29T12:38:57.853Z,95417
2022-11-29T12:40:07.503Z,95415
2022-11-29T12:41:16.145Z,95414
2022-11-29T12:42:25.794Z,95417
2022-11-29T12:43:35.476Z,95417
2022-11-29T12:44:44.622Z,95414
2022-11-29T12:45:53.873Z,95420
2022-11-29T12:48:12.146Z,95417
2022-11-29T12:49:20.794Z,95417
2022-11-29T12:50:29.638Z,95417
2022-11-29T12:51:39.302Z,95416
2022-11-29T12:52:46.979Z,95416
2022-11-29T12:53:56.711Z,95413
2022-11-29T12:55:06.386Z,95415
2022-11-29T12:56:15.069Z,95419
2022-11-29T12:57:23.738Z,95419
2022-11-29T12:58:33.410Z,95422
2022-11-29T12:59:44.049Z,95420
2022-11-29T13:00:53.733Z,95418
2022-11-29T13:02:02.457Z,95420
2022-11-29T13:03:11.060Z,95419
2022-11-29T13:04:20.691Z,95417
2022-11-29T13:05:28.352Z,95421
2022-11-29T13:06:37.022Z,95420
2022-11-29T13:07:45.875Z,95419
2022-11-29T13:08:55.495Z,95420
2022-11-29T13:10:05.149Z,95418
2022-11-29T13:11:14.781Z,95421
2022-11-29T13:12:23.442Z,95423
2022-11-29T13:13:33.156Z,95422
2022-11-29T13:14:42.949Z,95421
2022-11-29T13:15:50.546Z,95424
2022-11-29T13:17:00.156Z,95423
2022-11-29T13:18:09.797Z,95423
2022-11-29T13:19:19.471Z,95426
2022-11-29T13:20:27.120Z,95428
2022-11-29T13:21:36.813Z,95428
2022-11-29T13:22:45.443Z,95429
2022-11-29T13:24:10.514Z,95430
2022-11-29T13:25:05.773Z,95426
2022-11-29T13:26:14.395Z,95431
2022-11-29T13:27:23.046Z,95429
2022-11-29T13:28:31.741Z,95428
2022-11-29T13:29:40.384Z,95426
2022-11-29T13:30:50.122Z,95425
2022-11-29T13:31:58.715Z,95429
2022-11-29T13:33:09.370Z,95430
2022-11-29T13:34:18.031Z,95433
2022-11-29T13:35:26.675Z,95431
2022-11-29T13:36:35.403Z,95436
2022-11-29T13:37:44.052Z,95432
2022-11-29T13:38:54.705Z,95435
2022-11-29T13:40:04.390Z,95435
2022-11-29T13:41:13.218Z,95435
2022-11-29T13:42:22.972Z,95440
2022-11-29T13:43:32.780Z,95441
2022-11-29T13:44:41.329Z,95444
2022-11-29T13:45:50.994Z,95443
2022-11-29T13:47:00.647Z,95444
2022-11-29T13:48:09.383Z,95444
2022-11-29T13:49:19.042Z,95450
2022-11-29T13:50:28.726Z,95444
2022-11-29T13:51:38.381Z,95446
2022-11-29T13:52:48.036Z,95448
2022-11-29T13:53:56.861Z,95447
2022-11-29T13:55:07.554Z,95448
2022-11-29T13:56:16.204Z,95449
2022-11-29T13:57:26.075Z,95449
2022-11-29T13:58:36.650Z,95450
2022-11-29T13:59:47.653Z,95456
2022-11-29T14:00:56.010Z,95454
2022-11-29T14:02:05.712Z,95453
2022-11-29T14:03:14.395Z,95453
2022-11-29T14:04:22.983Z,95451
2022-11-29T14:05:32.702Z,95452
2022-11-29T14:06:42.369Z,95450
2022-11-29T14:07:52.053Z,95447
2022-11-29T14:10:10.319Z,95450
2022-11-29T14:11:20.166Z,95448
2022-11-29T14:12:29.881Z,95451
2022-11-29T14:13:39.542Z,95454
2022-11-29T14:14:49.199Z,95451
2022-11-29T14:15:57.923Z,95448
2022-11-29T14:17:07.577Z,95452
2022-11-29T14:18:17.252Z,95455
2022-11-29T14:19:31.587Z,95452
2022-11-29T14:20:37.599Z,95454
2022-11-29T14:21:46.297Z,95454
2022-11-29T14:22:54.962Z,95457
2022-11-29T14:24:03.623Z,95457
2022-11-29T14:25:35.244Z,95461
2022-11-29T14:26:28.012Z,95459
2022-11-29T14:27:32.600Z,95466
2022-11-29T14:28:42.295Z,95461
2022-11-29T14:29:51.951Z,95468
2022-11-29T14:31:00.655Z,95466
2022-11-29T14:32:09.278Z,95469
2022-11-29T14:33:17.967Z,95464
2022-11-29T14:34:26.667Z,95471
2022-11-29T14:35:36.341Z,95469
2022-11-29T14:36:46.003Z,95466
2022-11-29T14:37:54.689Z,95467
2022-11-29T14:39:04.343Z,95470
2022-11-29T14:40:12.023Z,95470
2022-11-29T14:41:20.696Z,95463
2022-11-29T14:42:30.396Z,95465
2022-11-29T14:43:39.079Z,95466
2022-11-29T14:44:48.724Z,95474
2022-11-29T14:45:56.402Z,95472
2022-11-29T14:47:06.115Z,95476
2022-11-29T14:48:15.753Z,95472
2022-11-29T14:49:24.410Z,95475
2022-11-29T14:50:33.064Z,95475
2022-11-29T14:51:41.756Z,95475
2022-11-29T14:52:50.415Z,95481
2022-11-29T14:54:00.088Z,95482